createdAt,value
2018-04-19T00:00:16.001Z,6.00
2018-04-19T00:02:44.695Z,6.20
2018-04-19T00:05:13.383Z,5.83
2018-04-19T00:07:41.584Z,5.67
2018-04-19T00:10:09.966Z,6.53
2018-04-19T00:12:38.953Z,6.10
2018-04-19T00:15:07.924Z,6.70
2018-04-19T00:17:36.151Z,6.07
2018-04-19T00:20:04.440Z,5.50
2018-04-19T00:22:33.599Z,6.97
2018-04-19T00:25:02.983Z,6.47
2018-04-19T00:27:31.176Z,6.33
2018-04-19T00:30:00.144Z,6.70
2018-04-19T00:32:28.372Z,6.70
2018-04-19T00:34:57.054Z,6.50
2018-04-19T00:37:25.291Z,5.37
2018-04-19T00:39:53.501Z,6.97
2018-04-19T00:42:22.683Z,6.30
2018-04-19T00:44:51.814Z,6.53
2018-04-19T00:47:20.012Z,6.47
2018-04-19T00:49:48.523Z,7.70
2018-04-19T00:52:16.735Z,6.77
2018-04-19T00:54:45.280Z,6.27
2018-04-19T00:57:13.573Z,5.50
2018-04-19T00:59:42.868Z,6.03
2018-04-19T01:02:11.081Z,6.53
2018-04-19T01:04:39.615Z,6.00
2018-04-19T01:07:07.812Z,5.90
2018-04-19T01:09:36.371Z,6.30
2018-04-19T01:12:04.576Z,6.63
2018-04-19T01:14:32.782Z,5.57
2018-04-19T01:17:00.993Z,6.73
2018-04-19T01:19:29.696Z,6.87
2018-04-19T01:21:58.206Z,6.70
2018-04-19T01:24:27.468Z,6.80
2018-04-19T01:26:55.773Z,7.87
2018-04-19T01:29:24.736Z,6.30
2018-04-19T01:31:52.932Z,5.87
2018-04-19T01:34:21.144Z,6.50
2018-04-19T01:36:49.343Z,5.30
2018-04-19T01:39:17.549Z,5.80
2018-04-19T01:41:47.072Z,6.33
2018-04-19T01:44:15.719Z,6.07
2018-04-19T01:46:43.934Z,5.80
2018-04-19T01:49:12.127Z,6.70
2018-04-19T01:51:40.339Z,6.27
2018-04-19T01:54:08.933Z,6.17
2018-04-19T01:56:42.084Z,6.50
2018-04-19T01:59:10.729Z,5.43
2018-04-19T02:01:38.929Z,6.53
2018-04-19T02:04:08.508Z,6.03
2018-04-19T02:06:36.699Z,6.23
2018-04-19T02:09:06.154Z,6.07
2018-04-19T02:11:34.362Z,5.30
2018-04-19T02:14:02.547Z,5.93
2018-04-19T02:16:30.995Z,5.90
2018-04-19T02:18:59.197Z,5.93
2018-04-19T02:21:27.409Z,5.43
2018-04-19T02:23:56.156Z,6.57
2018-04-19T02:26:24.531Z,5.73
2018-04-19T02:28:53.083Z,4.93
2018-04-19T02:31:21.285Z,5.97
2018-04-19T02:33:49.493Z,5.97
2018-04-19T02:36:18.472Z,5.30
2018-04-19T02:38:46.674Z,5.53
2018-04-19T02:41:15.952Z,6.20
2018-04-19T02:43:44.224Z,5.93
2018-04-19T02:46:12.427Z,5.47
2018-04-19T02:48:40.624Z,6.23
2018-04-19T02:51:08.844Z,6.07
2018-04-19T02:53:39.601Z,5.70
2018-04-19T02:56:08.849Z,5.63
2018-04-19T02:58:37.053Z,5.40
2018-04-19T03:01:05.597Z,6.23
2018-04-19T03:03:34.253Z,6.30
2018-04-19T03:06:02.448Z,6.50
2018-04-19T03:08:31.140Z,6.60
2018-04-19T03:10:59.343Z,6.63
2018-04-19T03:13:33.252Z,5.97
2018-04-19T03:16:01.444Z,5.97
2018-04-19T03:18:29.639Z,6.43
2018-04-19T03:20:57.860Z,5.37
2018-04-19T03:23:26.400Z,6.77
2018-04-19T03:25:54.602Z,6.90
2018-04-19T03:28:23.855Z,6.10
2018-04-19T03:30:52.371Z,6.60
2018-04-19T03:33:21.336Z,5.67
2018-04-19T03:35:49.720Z,6.07
2018-04-19T03:38:18.525Z,6.80
2018-04-19T03:40:47.141Z,7.27
2018-04-19T03:43:15.816Z,7.27
2018-04-19T03:45:44.792Z,9.07
2018-04-19T03:48:12.991Z,7.77
2018-04-19T03:50:41.217Z,8.20
2018-04-19T03:53:09.908Z,8.40
2018-04-19T03:55:38.400Z,9.60
2018-04-19T03:58:06.602Z,8.23
2018-04-19T04:00:35.164Z,9.20
2018-04-19T04:03:03.359Z,8.83
2018-04-19T04:05:31.913Z,7.60
2018-04-19T04:08:04.566Z,9.23
2018-04-19T04:10:32.768Z,8.50
2018-04-19T04:13:01.248Z,8.93
2018-04-19T04:15:29.447Z,8.80
2018-04-19T04:18:09.359Z,9.30
2018-04-19T04:20:49.220Z,8.97
2018-04-19T04:23:44.976Z,8.77
2018-04-19T04:26:13.962Z,10.40
2018-04-19T04:28:47.460Z,8.27
2018-04-19T04:31:16.751Z,9.00
2018-04-19T04:33:44.948Z,8.27
2018-04-19T04:36:13.156Z,9.27
2018-04-19T04:38:42.307Z,10.43
2018-04-19T04:41:11.279Z,9.57
2018-04-19T04:43:39.940Z,9.03
2018-04-19T04:46:08.139Z,9.83
2018-04-19T04:48:36.351Z,10.13
2018-04-19T04:51:05.222Z,11.87
2018-04-19T04:53:33.516Z,9.17
2018-04-19T04:56:02.584Z,10.40
2018-04-19T04:58:30.792Z,10.10
2018-04-19T05:00:59.089Z,8.53
2018-04-19T05:03:28.087Z,8.33
2018-04-19T05:05:56.287Z,7.57
2018-04-19T05:08:25.840Z,8.53
2018-04-19T05:10:55.042Z,7.53
2018-04-19T05:13:24.013Z,8.30
2018-04-19T05:15:52.231Z,8.33
2018-04-19T05:18:20.452Z,7.70
2018-04-19T05:20:48.668Z,7.80
2018-04-19T05:23:17.116Z,9.40
2018-04-19T05:25:45.625Z,8.47
2018-04-19T05:28:14.678Z,8.40
2018-04-19T05:30:43.101Z,9.60
2018-04-19T05:33:12.160Z,11.63
2018-04-19T05:35:40.382Z,8.10
2018-04-19T05:38:14.908Z,7.30
2018-04-19T05:40:43.568Z,9.13
2018-04-19T05:43:11.971Z,8.60
2018-04-19T05:45:40.941Z,7.17
2018-04-19T05:48:09.492Z,8.10
2018-04-19T05:50:37.782Z,8.20
2018-04-19T05:53:05.987Z,8.90
2018-04-19T05:55:35.223Z,8.67
2018-04-19T05:58:03.810Z,9.40
2018-04-19T06:00:32.680Z,8.60
2018-04-19T06:03:00.883Z,8.10
2018-04-19T06:05:29.469Z,7.83
2018-04-19T06:08:04.376Z,7.37
2018-04-19T06:10:32.580Z,7.80
2018-04-19T06:13:00.784Z,8.23
2018-04-19T06:15:29.004Z,8.10
2018-04-19T06:17:57.217Z,7.80
2018-04-19T06:20:31.571Z,8.20
2018-04-19T06:23:00.965Z,9.23
2018-04-19T06:25:29.160Z,6.80
2018-04-19T06:27:58.568Z,7.20
2018-04-19T06:30:28.008Z,7.83
2018-04-19T06:32:56.224Z,8.93
2018-04-19T06:35:24.428Z,7.97
2018-04-19T06:37:52.647Z,7.63
2018-04-19T06:40:20.915Z,7.40
2018-04-19T06:42:49.532Z,6.87
2018-04-19T06:45:17.813Z,6.60
2018-04-19T06:47:46.012Z,6.40
2018-04-19T06:50:14.976Z,6.67
2018-04-19T06:52:43.199Z,4.90
2018-04-19T06:55:13.095Z,6.13
2018-04-19T06:57:42.059Z,6.30
2018-04-19T07:00:10.652Z,6.80
2018-04-19T07:02:38.856Z,5.47
2018-04-19T07:05:08.337Z,5.07
2018-04-19T07:07:36.536Z,5.93
2018-04-19T07:10:05.464Z,5.80
2018-04-19T07:12:33.671Z,5.20
2018-04-19T07:15:01.863Z,5.45
2018-04-19T07:17:31.071Z,5.60
2018-04-19T07:19:59.275Z,7.67
2018-04-19T07:22:28.116Z,6.00
2018-04-19T07:24:56.313Z,5.63
2018-04-19T07:27:25.380Z,5.80
2018-04-19T07:29:53.769Z,5.37
2018-04-19T07:32:22.056Z,6.43
2018-04-19T07:34:50.543Z,5.60
2018-04-19T07:37:19.514Z,4.60
2018-04-19T07:39:48.312Z,5.30
2018-04-19T07:42:19.691Z,4.50
2018-04-19T07:44:48.658Z,5.53
2018-04-19T07:47:16.859Z,5.60
2018-04-19T07:49:46.036Z,4.63
2018-04-19T07:52:14.231Z,4.70
2018-04-19T07:54:43.097Z,5.17
2018-04-19T07:57:11.977Z,5.37
2018-04-19T07:59:40.236Z,4.87
2018-04-19T08:02:08.532Z,4.80
2018-04-19T08:04:36.811Z,4.90
2018-04-19T08:07:05.018Z,4.47
2018-04-19T08:09:33.462Z,4.60
2018-04-19T08:12:02.070Z,4.53
2018-04-19T08:14:30.266Z,4.60
2018-04-19T08:16:59.242Z,4.20
2018-04-19T08:19:27.447Z,4.50
2018-04-19T08:21:57.828Z,5.53
2018-04-19T08:24:26.069Z,3.60
2018-04-19T08:26:55.060Z,4.10
2018-04-19T08:29:23.688Z,4.73
2018-04-19T08:31:51.896Z,4.20
2018-04-19T08:34:20.866Z,3.70
2018-04-19T08:36:49.254Z,4.20
2018-04-19T08:39:19.279Z,4.00
2018-04-19T08:44:22.696Z,4.63
2018-04-19T08:46:50.899Z,4.13
2018-04-19T08:49:19.101Z,4.97
2018-04-19T08:51:47.329Z,3.20
2018-04-19T08:54:15.521Z,3.83
2018-04-19T08:56:44.353Z,4.37
2018-04-19T08:59:12.846Z,3.40
2018-04-19T09:01:46.651Z,3.20
2018-04-19T09:04:15.106Z,3.60
2018-04-19T09:06:43.857Z,4.00
2018-04-19T09:09:12.288Z,4.30
2018-04-19T09:11:40.520Z,4.03
2018-04-19T09:14:08.720Z,3.30
2018-04-19T09:16:36.948Z,3.77
2018-04-19T09:19:05.144Z,3.80
2018-04-19T09:21:33.347Z,4.40
2018-04-19T09:24:02.880Z,4.83
2018-04-19T09:26:31.096Z,3.43
2018-04-19T09:28:59.439Z,3.13
2018-04-19T09:31:27.712Z,3.30
2018-04-19T09:33:55.915Z,3.10
2018-04-19T09:36:24.879Z,4.67
2018-04-19T09:38:53.571Z,3.70
2018-04-19T09:41:21.785Z,3.55
2018-04-19T09:43:50.348Z,4.10
2018-04-19T09:46:19.330Z,3.37
2018-04-19T09:48:47.537Z,3.30
2018-04-19T09:51:16.004Z,3.23
2018-04-19T09:53:45.019Z,3.83
2018-04-19T09:56:13.961Z,3.90
2018-04-19T09:58:42.164Z,3.10
2018-04-19T10:01:11.993Z,3.77
2018-04-19T10:03:46.215Z,3.60
2018-04-19T10:06:14.801Z,3.57
2018-04-19T10:08:43.781Z,3.40
2018-04-19T10:11:12.754Z,3.63
2018-04-19T10:13:41.558Z,3.57
2018-04-19T10:16:10.543Z,2.97
2018-04-19T10:18:38.728Z,3.53
2018-04-19T10:21:07.726Z,3.47
2018-04-19T10:23:36.071Z,3.60
2018-04-19T10:26:05.197Z,2.77
2018-04-19T10:28:33.884Z,2.93
2018-04-19T10:31:02.188Z,3.13
2018-04-19T10:33:30.395Z,3.27
2018-04-19T10:35:58.684Z,3.43
2018-04-19T10:38:27.243Z,3.80
2018-04-19T10:40:55.438Z,3.00
2018-04-19T10:43:24.070Z,3.00
2018-04-19T10:45:53.272Z,3.47
2018-04-19T10:48:21.572Z,2.73
2018-04-19T10:50:49.787Z,3.00
2018-04-19T10:53:17.984Z,2.60
2018-04-19T10:55:46.555Z,2.43
2018-04-19T10:58:14.977Z,3.30
2018-04-19T11:00:43.651Z,3.20
2018-04-19T11:03:12.427Z,2.43
2018-04-19T11:05:41.707Z,2.50
2018-04-19T11:08:10.112Z,2.80
2018-04-19T11:10:38.308Z,3.23
2018-04-19T11:13:06.508Z,3.83
2018-04-19T11:15:34.723Z,2.50
2018-04-19T11:18:02.934Z,2.73
2018-04-19T11:20:31.139Z,2.80
2018-04-19T11:22:59.851Z,3.20
2018-04-19T11:25:28.058Z,2.70
2018-04-19T11:27:56.637Z,3.23
2018-04-19T11:30:25.907Z,3.20
2018-04-19T11:32:54.399Z,2.40
2018-04-19T11:35:22.606Z,2.17
2018-04-19T11:37:50.795Z,2.40
2018-04-19T11:40:19.667Z,2.60
2018-04-19T11:42:48.942Z,2.67
2018-04-19T11:45:17.144Z,3.00
2018-04-19T11:47:46.111Z,2.33
2018-04-19T11:50:14.486Z,2.53
2018-04-19T11:52:44.092Z,2.10
2018-04-19T11:55:14.146Z,2.33
2018-04-19T11:57:42.351Z,1.90
2018-04-19T12:00:10.600Z,2.53
2018-04-19T12:02:39.962Z,2.27
2018-04-19T12:05:08.275Z,2.20
2018-04-19T12:07:37.261Z,1.90
2018-04-19T12:10:05.844Z,1.80
2018-04-19T12:12:34.817Z,1.70
2018-04-19T12:15:03.016Z,1.63
2018-04-19T12:17:31.995Z,2.53
2018-04-19T12:20:00.208Z,2.40
2018-04-19T12:22:28.848Z,2.03
2018-04-19T12:24:57.051Z,2.60
2018-04-19T12:27:25.610Z,2.27
2018-04-19T12:29:53.877Z,2.63
2018-04-19T12:32:22.164Z,2.90
2018-04-19T12:34:50.370Z,2.47
2018-04-19T12:37:18.569Z,2.70
2018-04-19T12:39:46.991Z,2.27
2018-04-19T12:42:15.917Z,2.83
2018-04-19T12:44:46.436Z,3.40
2018-04-19T12:47:15.408Z,2.70
2018-04-19T12:49:43.828Z,2.53
2018-04-19T12:52:12.036Z,2.33
2018-04-19T12:54:40.236Z,2.47
2018-04-19T12:57:08.798Z,2.60
2018-04-19T12:59:37.961Z,2.50
2018-04-19T13:02:06.451Z,2.30
2018-04-19T13:04:35.080Z,2.40
2018-04-19T13:07:03.285Z,3.13
2018-04-19T13:09:31.887Z,2.17
2018-04-19T13:12:00.092Z,2.13
2018-04-19T13:14:28.308Z,2.50
2018-04-19T13:16:56.515Z,2.37
2018-04-19T13:19:24.726Z,2.30
2018-04-19T13:22:03.503Z,2.93
2018-04-19T13:24:32.474Z,2.40
2018-04-19T13:27:01.052Z,1.60
2018-04-19T13:29:29.759Z,1.70
2018-04-19T13:31:57.951Z,2.30
2018-04-19T13:34:26.920Z,1.80
2018-04-19T13:36:55.408Z,1.93
2018-04-19T13:39:24.653Z,2.40
2018-04-19T13:41:52.844Z,1.80
2018-04-19T13:44:21.254Z,2.08
2018-04-19T13:46:49.452Z,2.43
2018-04-19T13:49:17.665Z,2.20
2018-04-19T13:51:45.868Z,2.47
2018-04-19T13:54:14.840Z,2.40
2018-04-19T13:56:43.379Z,2.37
2018-04-19T13:59:13.189Z,2.50
2018-04-19T14:01:43.099Z,2.53
2018-04-19T14:04:12.811Z,2.40
2018-04-19T14:06:41.776Z,2.47
2018-04-19T14:09:10.303Z,1.60
2018-04-19T14:11:39.268Z,2.00
2018-04-19T14:14:07.474Z,2.50
2018-04-19T14:16:35.682Z,2.03
2018-04-19T14:19:03.913Z,2.40
2018-04-19T14:21:32.097Z,2.80
2018-04-19T14:24:00.679Z,2.70
2018-04-19T14:26:29.728Z,2.00
2018-04-19T14:28:58.434Z,3.17
2018-04-19T14:31:26.639Z,2.90
2018-04-19T14:33:54.836Z,2.37
2018-04-19T14:36:23.057Z,2.60
2018-04-19T14:38:51.540Z,2.20
2018-04-19T14:41:19.751Z,2.57
2018-04-19T14:43:48.282Z,2.80
2018-04-19T14:46:16.860Z,2.97
2018-04-19T14:48:45.273Z,2.67
2018-04-19T14:51:13.491Z,2.20
2018-04-19T14:53:41.690Z,2.70
2018-04-19T14:56:10.624Z,2.20
2018-04-19T14:58:39.596Z,2.60
2018-04-19T15:01:08.188Z,2.27
2018-04-19T15:03:36.869Z,2.90
2018-04-19T15:06:05.067Z,2.67
2018-04-19T15:08:39.470Z,2.50
2018-04-19T15:11:07.680Z,2.53
2018-04-19T15:13:35.879Z,2.53
2018-04-19T15:16:04.097Z,2.30
2018-04-19T15:18:32.297Z,2.40
2018-04-19T15:21:01.264Z,2.80
2018-04-19T15:23:29.717Z,2.10
2018-04-19T15:25:57.925Z,2.50
2018-04-19T15:28:26.395Z,3.00
2018-04-19T15:30:54.879Z,2.30
2018-04-19T15:33:23.331Z,2.70
2018-04-19T15:35:51.662Z,2.37
2018-04-19T15:38:20.480Z,2.17
2018-04-19T15:40:49.088Z,2.60
2018-04-19T15:43:17.927Z,2.20
2018-04-19T15:45:46.900Z,2.73
2018-04-19T15:48:15.099Z,2.07
2018-04-19T15:50:44.090Z,2.40
2018-04-19T15:53:12.599Z,2.83
2018-04-19T15:55:41.311Z,2.57
2018-04-19T15:58:09.970Z,2.30
2018-04-19T16:00:39.474Z,2.07
2018-04-19T16:03:09.252Z,1.83
2018-04-19T16:05:38.058Z,2.40
2018-04-19T16:08:08.176Z,3.27
2018-04-19T16:10:37.702Z,2.70
2018-04-19T16:13:06.657Z,2.43
2018-04-19T16:15:35.147Z,3.20
2018-04-19T16:18:03.351Z,2.80
2018-04-19T16:20:31.543Z,2.50
2018-04-19T16:23:01.099Z,2.60
2018-04-19T16:25:29.681Z,3.10
2018-04-19T16:27:59.654Z,3.10
2018-04-19T16:30:27.957Z,2.60
2018-04-19T16:32:56.973Z,2.40
2018-04-19T16:35:26.378Z,2.53
2018-04-19T16:37:54.587Z,3.50
2018-04-19T16:40:23.144Z,2.90
2018-04-19T16:42:52.248Z,3.13
2018-04-19T16:45:21.228Z,2.70
2018-04-19T16:47:49.435Z,3.20
2018-04-19T16:50:18.407Z,2.90
2018-04-19T16:52:46.952Z,2.60
2018-04-19T16:55:15.864Z,3.13
2018-04-19T16:57:44.823Z,3.40
2018-04-19T17:00:19.575Z,3.30
2018-04-19T17:02:48.540Z,3.17
2018-04-19T17:05:16.970Z,3.83
2018-04-19T17:07:45.172Z,3.93
2018-04-19T17:10:13.718Z,3.90
2018-04-19T17:12:41.938Z,3.53
2018-04-19T17:15:10.132Z,3.90
2018-04-19T17:17:38.344Z,3.50
2018-04-19T17:20:07.118Z,3.20
2018-04-19T17:22:35.802Z,3.27
2018-04-19T17:25:04.735Z,3.50
2018-04-19T17:27:33.774Z,2.80
2018-04-19T17:30:02.090Z,4.00
2018-04-19T17:32:30.361Z,3.33
2018-04-19T17:34:58.535Z,3.50
2018-04-19T17:37:26.779Z,3.00
2018-04-19T17:39:55.206Z,3.47
2018-04-19T17:42:25.141Z,3.23
2018-04-19T17:44:54.112Z,3.40
2018-04-19T17:47:22.309Z,3.67
2018-04-19T17:49:51.314Z,3.50
2018-04-19T17:52:20.279Z,3.90
2018-04-19T17:54:48.477Z,2.87
2018-04-19T17:57:17.640Z,3.10
2018-04-19T17:59:46.543Z,3.80
2018-04-19T18:02:15.989Z,4.13
2018-04-19T18:04:44.584Z,3.80
2018-04-19T18:07:12.784Z,3.67
2018-04-19T18:09:41.496Z,3.83
2018-04-19T18:12:09.703Z,4.23
2018-04-19T18:14:38.659Z,6.30
2018-04-19T18:17:07.275Z,4.40
2018-04-19T18:19:36.460Z,3.80
2018-04-19T18:22:10.244Z,4.30
2018-04-19T18:24:38.451Z,3.97
2018-04-19T18:27:07.192Z,3.53
2018-04-19T18:29:35.840Z,4.10
2018-04-19T18:32:04.031Z,3.90
2018-04-19T18:34:32.266Z,3.30
2018-04-19T18:37:05.433Z,3.80
2018-04-19T18:39:34.034Z,3.57
2018-04-19T18:42:02.244Z,3.83
2018-04-19T18:44:31.420Z,3.63
2018-04-19T18:47:00.389Z,3.77
2018-04-19T18:49:28.603Z,4.07
2018-04-19T18:51:57.572Z,4.47
2018-04-19T18:54:25.798Z,4.53
2018-04-19T18:56:53.987Z,3.87
2018-04-19T18:59:23.144Z,3.33
2018-04-19T19:01:57.860Z,3.27
2018-04-19T19:04:26.348Z,5.87
2018-04-19T19:06:54.599Z,9.20
2018-04-19T19:09:23.321Z,9.00
2018-04-19T19:11:51.526Z,12.33
2018-04-19T19:14:20.384Z,4.80
2018-04-19T19:16:49.662Z,3.33
2018-04-19T19:19:29.633Z,3.60
2018-04-19T19:22:11.644Z,4.07
2018-04-19T19:24:39.840Z,3.70
2018-04-19T19:27:09.179Z,4.10
2018-04-19T19:29:37.424Z,3.77
2018-04-19T19:32:05.620Z,3.87
2018-04-19T19:34:33.831Z,3.43
2018-04-19T19:37:02.280Z,3.43
2018-04-19T19:39:31.203Z,4.53
2018-04-19T19:41:59.684Z,4.43
2018-04-19T19:44:28.563Z,3.53
2018-04-19T19:46:56.934Z,3.40
2018-04-19T19:49:25.103Z,4.47
2018-04-19T19:51:53.325Z,4.23
2018-04-19T19:54:23.460Z,4.00
2018-04-19T19:56:51.660Z,4.80
2018-04-19T19:59:20.277Z,4.47
2018-04-19T20:01:48.880Z,3.90
2018-04-19T20:04:18.519Z,4.50
2018-04-19T20:06:46.716Z,5.00
2018-04-19T20:09:16.268Z,3.80
2018-04-19T20:11:45.343Z,3.70
2018-04-19T20:14:13.569Z,4.07
2018-04-19T20:16:41.759Z,4.40
2018-04-19T20:19:10.318Z,3.97
2018-04-19T20:21:39.279Z,4.03
2018-04-19T20:24:08.109Z,3.97
2018-04-19T20:26:42.723Z,4.77
2018-04-19T20:29:12.679Z,3.97
2018-04-19T20:31:40.933Z,4.50
2018-04-19T20:34:09.153Z,4.10
2018-04-19T20:36:37.673Z,4.30
2018-04-19T20:39:07.145Z,4.30
2018-04-19T20:41:35.340Z,4.40
2018-04-19T20:44:05.748Z,4.83
2018-04-19T20:46:33.963Z,4.73
2018-04-19T20:49:02.179Z,4.23
2018-04-19T20:51:30.615Z,4.43
2018-04-19T20:53:59.581Z,4.40
2018-04-19T20:56:27.790Z,3.77
2018-04-19T20:59:00.332Z,4.00
2018-04-19T21:01:28.545Z,4.13
2018-04-19T21:03:57.239Z,4.60
2018-04-19T21:06:25.668Z,4.57
2018-04-19T21:08:54.087Z,4.10
2018-04-19T21:11:22.288Z,4.67
2018-04-19T21:13:50.488Z,4.50
2018-04-19T21:16:18.985Z,4.70
2018-04-19T21:18:47.179Z,6.40
2018-04-19T21:21:15.759Z,4.07
2018-04-19T21:23:44.225Z,4.43
2018-04-19T21:26:12.433Z,7.30
2018-04-19T21:28:41.139Z,4.60
2018-04-19T21:31:09.475Z,4.60
2018-04-19T21:33:37.693Z,4.83
2018-04-19T21:36:05.893Z,4.50
2018-04-19T21:38:37.363Z,3.83
2018-04-19T21:41:05.555Z,4.40
2018-04-19T21:43:33.822Z,5.03
2018-04-19T21:46:02.020Z,4.10
2018-04-19T21:48:30.987Z,5.00
2018-04-19T21:50:59.505Z,5.70
2018-04-19T21:53:28.481Z,5.00
2018-04-19T21:55:56.912Z,6.53
2018-04-19T21:58:25.477Z,4.60
2018-04-19T22:00:53.936Z,5.43
2018-04-19T22:03:22.902Z,5.37
2018-04-19T22:05:51.488Z,5.37
2018-04-19T22:08:20.068Z,6.27
2018-04-19T22:10:48.272Z,4.80
2018-04-19T22:13:16.471Z,5.40
2018-04-19T22:15:44.832Z,5.20
2018-04-19T22:18:13.800Z,5.57
2018-04-19T22:20:42.003Z,5.27
2018-04-19T22:23:11.484Z,6.10
2018-04-19T22:25:39.683Z,4.70
2018-04-19T22:28:08.240Z,5.33
2018-04-19T22:30:36.940Z,8.53
2018-04-19T22:33:05.147Z,6.40
2018-04-19T22:35:33.348Z,5.00
2018-04-19T22:38:02.178Z,5.63
2018-04-19T22:40:30.788Z,5.43
2018-04-19T22:42:59.351Z,6.07
2018-04-19T22:45:27.557Z,5.40
2018-04-19T22:47:55.864Z,6.23
2018-04-19T22:50:24.095Z,6.13
2018-04-19T22:52:52.296Z,5.27
2018-04-19T22:55:20.491Z,5.30
2018-04-19T22:57:49.471Z,5.37
2018-04-19T23:00:17.726Z,5.97
2018-04-19T23:02:46.699Z,5.60
2018-04-19T23:05:15.268Z,5.90
2018-04-19T23:07:43.474Z,4.90
2018-04-19T23:10:12.500Z,5.57
2018-04-19T23:12:40.695Z,5.30
2018-04-19T23:15:09.626Z,5.90
2018-04-19T23:17:38.634Z,5.80
2018-04-19T23:20:06.796Z,6.40
2018-04-19T23:22:36.096Z,5.87
2018-04-19T23:25:05.081Z,6.37
2018-04-19T23:27:34.165Z,6.43
2018-04-19T23:30:03.056Z,6.47
2018-04-19T23:32:31.433Z,5.57
2018-04-19T23:34:59.589Z,6.03
2018-04-19T23:37:27.807Z,6.17
2018-04-19T23:39:56.368Z,5.30
2018-04-19T23:42:24.572Z,7.13
2018-04-19T23:44:53.244Z,7.73
2018-04-19T23:47:21.445Z,6.80
2018-04-19T23:49:50.416Z,5.60
2018-04-19T23:52:18.716Z,6.60
2018-04-19T23:54:46.911Z,6.50
2018-04-19T23:57:15.123Z,7.00
2018-04-19T23:59:43.628Z,6.13
